sensor_id;sensor_type;location;lat;lon;timestamp;P1;durP1;ratioP1;P2;durP2;ratioP2
43363;SDS011;40636;52.424;-1.948;2024-02-21T00:00:45;12.13;;;4.47;;
43363;SDS011;40636;52.424;-1.948;2024-02-21T00:03:12;9.93;;;3.25;;
43363;SDS011;40636;52.424;-1.948;2024-02-21T00:05:39;11.00;;;3.80;;
43363;SDS011;40636;52.424;-1.948;2024-02-21T00:08:06;8.68;;;2.78;;
43363;SDS011;40636;52.424;-1.948;2024-02-21T00:10:33;13.63;;;4.00;;
43363;SDS011;40636;52.424;-1.948;2024-02-21T00:13:01;14.20;;;3.60;;
43363;SDS011;40636;52.424;-1.948;2024-02-21T00:15:28;12.48;;;3.97;;
43363;SDS011;40636;52.424;-1.948;2024-02-21T00:17:55;10.15;;;3.33;;
43363;SDS011;40636;52.424;-1.948;2024-02-21T00:20:22;11.85;;;4.50;;
43363;SDS011;40636;52.424;-1.948;2024-02-21T00:22:49;14.23;;;4.93;;
43363;SDS011;40636;52.424;-1.948;2024-02-21T00:25:16;12.65;;;3.83;;
43363;SDS011;40636;52.424;-1.948;2024-02-21T00:27:43;13.40;;;3.65;;
43363;SDS011;40636;52.424;-1.948;2024-02-21T00:30:10;8.23;;;3.53;;
43363;SDS011;40636;52.424;-1.948;2024-02-21T00:32:38;11.10;;;3.88;;
43363;SDS011;40636;52.424;-1.948;2024-02-21T00:35:05;12.88;;;4.88;;
43363;SDS011;40636;52.424;-1.948;2024-02-21T00:37:32;10.48;;;3.85;;
43363;SDS011;40636;52.424;-1.948;2024-02-21T00:39:58;10.48;;;3.83;;
43363;SDS011;40636;52.424;-1.948;2024-02-21T00:42:25;10.63;;;4.03;;
43363;SDS011;40636;52.424;-1.948;2024-02-21T00:44:52;9.82;;;4.18;;
43363;SDS011;40636;52.424;-1.948;2024-02-21T00:47:19;10.27;;;4.05;;
43363;SDS011;40636;52.424;-1.948;2024-02-21T00:49:46;11.63;;;4.72;;
43363;SDS011;40636;52.424;-1.948;2024-02-21T00:52:13;7.95;;;4.28;;
43363;SDS011;40636;52.424;-1.948;2024-02-21T00:54:40;11.30;;;4.85;;
43363;SDS011;40636;52.424;-1.948;2024-02-21T00:57:18;15.02;;;4.38;;
43363;SDS011;40636;52.424;-1.948;2024-02-21T00:59:45;13.65;;;5.10;;
43363;SDS011;40636;52.424;-1.948;2024-02-21T01:02:12;10.65;;;5.32;;
43363;SDS011;40636;52.424;-1.948;2024-02-21T01:04:39;2.38;;;1.40;;
43363;SDS011;40636;52.424;-1.948;2024-02-21T01:07:06;15.38;;;5.85;;
43363;SDS011;40636;52.424;-1.948;2024-02-21T01:09:33;19.98;;;6.63;;
43363;SDS011;40636;52.424;-1.948;2024-02-21T01:12:00;9.98;;;5.30;;
43363;SDS011;40636;52.424;-1.948;2024-02-21T01:14:27;19.80;;;6.55;;
43363;SDS011;40636;52.424;-1.948;2024-02-21T01:16:54;16.17;;;6.05;;
43363;SDS011;40636;52.424;-1.948;2024-02-21T01:19:21;16.70;;;6.22;;
43363;SDS011;40636;52.424;-1.948;2024-02-21T01:21:48;14.35;;;6.43;;
43363;SDS011;40636;52.424;-1.948;2024-02-21T01:24:15;20.25;;;7.18;;
43363;SDS011;40636;52.424;-1.948;2024-02-21T01:26:42;13.63;;;6.28;;
43363;SDS011;40636;52.424;-1.948;2024-02-21T01:29:09;11.65;;;5.82;;
43363;SDS011;40636;52.424;-1.948;2024-02-21T01:31:36;17.45;;;6.47;;
43363;SDS011;40636;52.424;-1.948;2024-02-21T01:34:03;15.65;;;6.55;;
43363;SDS011;40636;52.424;-1.948;2024-02-21T01:36:29;10.88;;;5.75;;
43363;SDS011;40636;52.424;-1.948;2024-02-21T01:38:56;17.42;;;6.25;;
43363;SDS011;40636;52.424;-1.948;2024-02-21T01:41:23;13.43;;;5.78;;
43363;SDS011;40636;52.424;-1.948;2024-02-21T01:43:50;9.65;;;5.43;;
43363;SDS011;40636;52.424;-1.948;2024-02-21T01:46:18;13.85;;;5.15;;
43363;SDS011;40636;52.424;-1.948;2024-02-21T01:48:45;15.38;;;5.80;;
43363;SDS011;40636;52.424;-1.948;2024-02-21T01:51:13;11.25;;;5.28;;
43363;SDS011;40636;52.424;-1.948;2024-02-21T01:53:42;10.70;;;5.10;;
43363;SDS011;40636;52.424;-1.948;2024-02-21T01:56:10;11.40;;;4.82;;
43363;SDS011;40636;52.424;-1.948;2024-02-21T01:58:39;10.55;;;4.45;;
43363;SDS011;40636;52.424;-1.948;2024-02-21T02:01:09;1.55;;;1.20;;
43363;SDS011;40636;52.424;-1.948;2024-02-21T02:03:36;8.88;;;3.97;;
43363;SDS011;40636;52.424;-1.948;2024-02-21T02:06:07;6.68;;;3.53;;
43363;SDS011;40636;52.424;-1.948;2024-02-21T02:08:34;5.57;;;3.10;;
43363;SDS011;40636;52.424;-1.948;2024-02-21T02:11:01;6.07;;;2.78;;
43363;SDS011;40636;52.424;-1.948;2024-02-21T02:13:28;5.85;;;2.78;;
43363;SDS011;40636;52.424;-1.948;2024-02-21T02:15:55;5.65;;;2.42;;
43363;SDS011;40636;52.424;-1.948;2024-02-21T02:18:22;4.82;;;2.58;;
43363;SDS011;40636;52.424;-1.948;2024-02-21T02:20:49;4.18;;;1.83;;
43363;SDS011;40636;52.424;-1.948;2024-02-21T02:25:48;8.32;;;2.70;;
43363;SDS011;40636;52.424;-1.948;2024-02-21T02:28:19;2.92;;;2.08;;
43363;SDS011;40636;52.424;-1.948;2024-02-21T02:30:46;4.53;;;1.92;;
43363;SDS011;40636;52.424;-1.948;2024-02-21T02:33:14;1.92;;;1.65;;
43363;SDS011;40636;52.424;-1.948;2024-02-21T02:35:41;0.30;;;0.30;;
43363;SDS011;40636;52.424;-1.948;2024-02-21T02:38:08;5.15;;;1.83;;
43363;SDS011;40636;52.424;-1.948;2024-02-21T02:40:35;4.05;;;2.38;;
43363;SDS011;40636;52.424;-1.948;2024-02-21T02:43:02;2.58;;;1.35;;
43363;SDS011;40636;52.424;-1.948;2024-02-21T02:45:29;2.47;;;1.85;;
43363;SDS011;40636;52.424;-1.948;2024-02-21T02:47:56;2.28;;;1.35;;
43363;SDS011;40636;52.424;-1.948;2024-02-21T02:50:24;3.40;;;1.50;;
43363;SDS011;40636;52.424;-1.948;2024-02-21T02:52:55;2.00;;;1.52;;
43363;SDS011;40636;52.424;-1.948;2024-02-21T02:55:22;2.65;;;1.38;;
43363;SDS011;40636;52.424;-1.948;2024-02-21T02:57:49;3.35;;;1.50;;
43363;SDS011;40636;52.424;-1.948;2024-02-21T03:00:16;2.97;;;1.58;;
43363;SDS011;40636;52.424;-1.948;2024-02-21T03:02:44;2.95;;;1.50;;
43363;SDS011;40636;52.424;-1.948;2024-02-21T03:05:13;3.30;;;1.73;;
43363;SDS011;40636;52.424;-1.948;2024-02-21T03:07:42;1.83;;;1.30;;
43363;SDS011;40636;52.424;-1.948;2024-02-21T03:10:09;2.53;;;1.52;;
43363;SDS011;40636;52.424;-1.948;2024-02-21T03:12:36;1.42;;;1.33;;
43363;SDS011;40636;52.424;-1.948;2024-02-21T03:15:04;1.88;;;1.38;;
43363;SDS011;40636;52.424;-1.948;2024-02-21T03:17:31;1.70;;;1.50;;
43363;SDS011;40636;52.424;-1.948;2024-02-21T03:20:01;2.15;;;1.30;;
43363;SDS011;40636;52.424;-1.948;2024-02-21T03:22:32;1.73;;;1.60;;
43363;SDS011;40636;52.424;-1.948;2024-02-21T03:24:59;2.90;;;1.20;;
43363;SDS011;40636;52.424;-1.948;2024-02-21T03:27:26;2.17;;;1.30;;
43363;SDS011;40636;52.424;-1.948;2024-02-21T03:29:53;5.03;;;1.55;;
43363;SDS011;40636;52.424;-1.948;2024-02-21T03:32:20;3.90;;;1.40;;
43363;SDS011;40636;52.424;-1.948;2024-02-21T03:34:47;3.20;;;1.30;;
43363;SDS011;40636;52.424;-1.948;2024-02-21T03:37:14;2.47;;;1.40;;
43363;SDS011;40636;52.424;-1.948;2024-02-21T03:39:41;2.53;;;1.38;;
43363;SDS011;40636;52.424;-1.948;2024-02-21T03:42:08;1.73;;;1.20;;
43363;SDS011;40636;52.424;-1.948;2024-02-21T03:44:36;4.20;;;1.52;;
43363;SDS011;40636;52.424;-1.948;2024-02-21T03:47:03;3.38;;;1.38;;
43363;SDS011;40636;52.424;-1.948;2024-02-21T03:49:30;2.97;;;1.40;;
43363;SDS011;40636;52.424;-1.948;2024-02-21T03:51:57;1.73;;;1.40;;
43363;SDS011;40636;52.424;-1.948;2024-02-21T03:54:24;2.92;;;1.40;;
43363;SDS011;40636;52.424;-1.948;2024-02-21T03:56:50;5.28;;;1.80;;
43363;SDS011;40636;52.424;-1.948;2024-02-21T03:59:17;1.63;;;1.48;;
43363;SDS011;40636;52.424;-1.948;2024-02-21T04:01:44;2.65;;;1.35;;
43363;SDS011;40636;52.424;-1.948;2024-02-21T04:04:11;4.57;;;1.52;;
43363;SDS011;40636;52.424;-1.948;2024-02-21T04:06:48;3.78;;;1.42;;
43363;SDS011;40636;52.424;-1.948;2024-02-21T04:09:15;8.18;;;1.85;;
43363;SDS011;40636;52.424;-1.948;2024-02-21T04:11:43;4.10;;;2.22;;
43363;SDS011;40636;52.424;-1.948;2024-02-21T04:14:10;5.75;;;2.00;;
43363;SDS011;40636;52.424;-1.948;2024-02-21T04:16:40;3.58;;;2.10;;
43363;SDS011;40636;52.424;-1.948;2024-02-21T04:19:07;5.97;;;2.92;;
43363;SDS011;40636;52.424;-1.948;2024-02-21T04:21:35;3.67;;;2.08;;
43363;SDS011;40636;52.424;-1.948;2024-02-21T04:24:02;5.00;;;2.33;;
43363;SDS011;40636;52.424;-1.948;2024-02-21T04:26:32;10.15;;;3.33;;
43363;SDS011;40636;52.424;-1.948;2024-02-21T04:29:00;5.57;;;2.58;;
43363;SDS011;40636;52.424;-1.948;2024-02-21T04:31:27;8.95;;;2.83;;
43363;SDS011;40636;52.424;-1.948;2024-02-21T04:33:55;7.53;;;2.83;;
43363;SDS011;40636;52.424;-1.948;2024-02-21T04:36:22;9.25;;;3.13;;
43363;SDS011;40636;52.424;-1.948;2024-02-21T04:38:49;6.88;;;3.00;;
43363;SDS011;40636;52.424;-1.948;2024-02-21T04:41:16;5.53;;;2.40;;
43363;SDS011;40636;52.424;-1.948;2024-02-21T04:43:45;7.70;;;3.13;;
43363;SDS011;40636;52.424;-1.948;2024-02-21T04:46:13;7.18;;;2.95;;
43363;SDS011;40636;52.424;-1.948;2024-02-21T04:48:40;5.35;;;2.67;;
43363;SDS011;40636;52.424;-1.948;2024-02-21T04:51:07;4.78;;;2.05;;
43363;SDS011;40636;52.424;-1.948;2024-02-21T04:53:34;5.25;;;2.30;;
43363;SDS011;40636;52.424;-1.948;2024-02-21T04:56:01;3.53;;;1.95;;
43363;SDS011;40636;52.424;-1.948;2024-02-21T04:58:28;6.43;;;2.03;;
43363;SDS011;40636;52.424;-1.948;2024-02-21T05:00:55;5.00;;;2.03;;
43363;SDS011;40636;52.424;-1.948;2024-02-21T05:03:22;7.60;;;2.47;;
43363;SDS011;40636;52.424;-1.948;2024-02-21T05:05:49;8.48;;;2.10;;
43363;SDS011;40636;52.424;-1.948;2024-02-21T05:08:16;3.75;;;1.95;;
43363;SDS011;40636;52.424;-1.948;2024-02-21T05:10:43;5.75;;;2.10;;
43363;SDS011;40636;52.424;-1.948;2024-02-21T05:13:10;4.75;;;1.77;;
43363;SDS011;40636;52.424;-1.948;2024-02-21T05:15:37;4.55;;;2.10;;
43363;SDS011;40636;52.424;-1.948;2024-02-21T05:18:04;3.75;;;2.03;;
43363;SDS011;40636;52.424;-1.948;2024-02-21T05:20:31;6.30;;;2.10;;
43363;SDS011;40636;52.424;-1.948;2024-02-21T05:22:58;0.50;;;0.50;;
43363;SDS011;40636;52.424;-1.948;2024-02-21T05:25:25;0.30;;;0.30;;
43363;SDS011;40636;52.424;-1.948;2024-02-21T05:27:52;3.20;;;1.95;;
43363;SDS011;40636;52.424;-1.948;2024-02-21T05:30:20;5.88;;;2.15;;
43363;SDS011;40636;52.424;-1.948;2024-02-21T05:32:47;5.18;;;2.08;;
43363;SDS011;40636;52.424;-1.948;2024-02-21T05:35:14;5.75;;;1.90;;
43363;SDS011;40636;52.424;-1.948;2024-02-21T05:37:41;9.30;;;2.75;;
43363;SDS011;40636;52.424;-1.948;2024-02-21T05:40:08;6.53;;;2.22;;
43363;SDS011;40636;52.424;-1.948;2024-02-21T05:42:35;5.38;;;2.55;;
43363;SDS011;40636;52.424;-1.948;2024-02-21T05:45:02;5.82;;;2.70;;
43363;SDS011;40636;52.424;-1.948;2024-02-21T05:47:29;6.03;;;2.50;;
43363;SDS011;40636;52.424;-1.948;2024-02-21T05:49:56;6.82;;;2.92;;
43363;SDS011;40636;52.424;-1.948;2024-02-21T05:52:23;6.25;;;2.85;;
43363;SDS011;40636;52.424;-1.948;2024-02-21T05:54:50;5.63;;;2.67;;
43363;SDS011;40636;52.424;-1.948;2024-02-21T05:57:17;4.05;;;2.63;;
43363;SDS011;40636;52.424;-1.948;2024-02-21T05:59:45;6.15;;;2.47;;
43363;SDS011;40636;52.424;-1.948;2024-02-21T06:02:11;8.23;;;2.88;;
43363;SDS011;40636;52.424;-1.948;2024-02-21T06:04:39;7.10;;;2.78;;
43363;SDS011;40636;52.424;-1.948;2024-02-21T06:07:06;5.47;;;2.58;;
43363;SDS011;40636;52.424;-1.948;2024-02-21T06:09:34;4.93;;;2.10;;
43363;SDS011;40636;52.424;-1.948;2024-02-21T06:12:01;4.38;;;2.25;;
43363;SDS011;40636;52.424;-1.948;2024-02-21T06:14:28;5.97;;;2.60;;
43363;SDS011;40636;52.424;-1.948;2024-02-21T06:16:55;3.75;;;2.22;;
43363;SDS011;40636;52.424;-1.948;2024-02-21T06:19:21;3.63;;;2.83;;
43363;SDS011;40636;52.424;-1.948;2024-02-21T06:21:49;6.47;;;2.83;;
43363;SDS011;40636;52.424;-1.948;2024-02-21T06:24:15;8.40;;;2.42;;
43363;SDS011;40636;52.424;-1.948;2024-02-21T06:26:42;5.40;;;2.63;;
43363;SDS011;40636;52.424;-1.948;2024-02-21T06:29:11;4.63;;;2.67;;
43363;SDS011;40636;52.424;-1.948;2024-02-21T06:31:40;6.18;;;2.80;;
43363;SDS011;40636;52.424;-1.948;2024-02-21T06:34:07;7.20;;;3.22;;
43363;SDS011;40636;52.424;-1.948;2024-02-21T06:36:34;5.40;;;3.10;;
43363;SDS011;40636;52.424;-1.948;2024-02-21T06:39:01;5.85;;;2.90;;
43363;SDS011;40636;52.424;-1.948;2024-02-21T06:41:31;7.57;;;2.90;;
43363;SDS011;40636;52.424;-1.948;2024-02-21T06:43:59;9.15;;;3.08;;
43363;SDS011;40636;52.424;-1.948;2024-02-21T06:46:27;7.32;;;3.03;;
43363;SDS011;40636;52.424;-1.948;2024-02-21T06:49:00;7.15;;;3.30;;
43363;SDS011;40636;52.424;-1.948;2024-02-21T06:51:29;9.38;;;3.50;;
43363;SDS011;40636;52.424;-1.948;2024-02-21T06:53:56;4.80;;;2.90;;
43363;SDS011;40636;52.424;-1.948;2024-02-21T06:56:25;7.60;;;3.17;;
43363;SDS011;40636;52.424;-1.948;2024-02-21T06:58:55;6.05;;;3.42;;
43363;SDS011;40636;52.424;-1.948;2024-02-21T07:01:22;6.10;;;2.80;;
43363;SDS011;40636;52.424;-1.948;2024-02-21T07:03:50;7.97;;;3.15;;
43363;SDS011;40636;52.424;-1.948;2024-02-21T07:06:17;6.90;;;2.85;;
43363;SDS011;40636;52.424;-1.948;2024-02-21T07:08:44;7.30;;;2.92;;
43363;SDS011;40636;52.424;-1.948;2024-02-21T07:11:11;0.43;;;0.43;;
43363;SDS011;40636;52.424;-1.948;2024-02-21T07:13:38;4.63;;;3.10;;
43363;SDS011;40636;52.424;-1.948;2024-02-21T07:16:05;7.28;;;2.95;;
43363;SDS011;40636;52.424;-1.948;2024-02-21T07:18:33;5.78;;;2.63;;
43363;SDS011;40636;52.424;-1.948;2024-02-21T07:21:00;5.78;;;2.67;;
43363;SDS011;40636;52.424;-1.948;2024-02-21T07:23:27;5.70;;;2.10;;
43363;SDS011;40636;52.424;-1.948;2024-02-21T07:25:54;4.85;;;2.00;;
43363;SDS011;40636;52.424;-1.948;2024-02-21T07:28:21;3.67;;;2.17;;
43363;SDS011;40636;52.424;-1.948;2024-02-21T07:30:48;6.63;;;2.13;;
43363;SDS011;40636;52.424;-1.948;2024-02-21T07:33:15;3.13;;;1.92;;
43363;SDS011;40636;52.424;-1.948;2024-02-21T07:35:42;4.30;;;1.77;;
43363;SDS011;40636;52.424;-1.948;2024-02-21T07:38:11;5.72;;;1.73;;
43363;SDS011;40636;52.424;-1.948;2024-02-21T07:40:39;2.42;;;1.85;;
43363;SDS011;40636;52.424;-1.948;2024-02-21T07:43:06;2.70;;;1.50;;
43363;SDS011;40636;52.424;-1.948;2024-02-21T07:45:34;5.97;;;2.15;;
43363;SDS011;40636;52.424;-1.948;2024-02-21T07:48:01;3.92;;;2.13;;
43363;SDS011;40636;52.424;-1.948;2024-02-21T07:50:28;2.67;;;1.75;;
43363;SDS011;40636;52.424;-1.948;2024-02-21T07:52:56;3.85;;;1.92;;
43363;SDS011;40636;52.424;-1.948;2024-02-21T07:55:23;4.03;;;2.03;;
43363;SDS011;40636;52.424;-1.948;2024-02-21T07:57:50;4.20;;;1.60;;
43363;SDS011;40636;52.424;-1.948;2024-02-21T08:00:17;5.03;;;2.08;;
43363;SDS011;40636;52.424;-1.948;2024-02-21T08:02:47;2.05;;;1.45;;
43363;SDS011;40636;52.424;-1.948;2024-02-21T08:05:15;2.90;;;1.40;;
43363;SDS011;40636;52.424;-1.948;2024-02-21T08:07:42;3.50;;;1.65;;
43363;SDS011;40636;52.424;-1.948;2024-02-21T08:10:09;2.75;;;1.30;;
43363;SDS011;40636;52.424;-1.948;2024-02-21T08:12:36;3.70;;;1.63;;
43363;SDS011;40636;52.424;-1.948;2024-02-21T08:15:03;0.40;;;0.40;;
43363;SDS011;40636;52.424;-1.948;2024-02-21T08:17:30;0.20;;;0.20;;
43363;SDS011;40636;52.424;-1.948;2024-02-21T08:19:57;0.25;;;0.25;;
43363;SDS011;40636;52.424;-1.948;2024-02-21T08:22:25;3.53;;;1.40;;
43363;SDS011;40636;52.424;-1.948;2024-02-21T08:24:53;3.25;;;1.65;;
43363;SDS011;40636;52.424;-1.948;2024-02-21T08:27:20;3.38;;;1.38;;
43363;SDS011;40636;52.424;-1.948;2024-02-21T08:29:47;4.38;;;2.00;;
43363;SDS011;40636;52.424;-1.948;2024-02-21T08:32:13;2.60;;;1.55;;
43363;SDS011;40636;52.424;-1.948;2024-02-21T08:34:40;0.30;;;0.30;;
43363;SDS011;40636;52.424;-1.948;2024-02-21T08:37:07;0.30;;;0.30;;
43363;SDS011;40636;52.424;-1.948;2024-02-21T08:39:37;0.40;;;0.40;;
43363;SDS011;40636;52.424;-1.948;2024-02-21T08:42:04;0.30;;;0.30;;
43363;SDS011;40636;52.424;-1.948;2024-02-21T08:44:31;2.53;;;1.40;;
43363;SDS011;40636;52.424;-1.948;2024-02-21T08:46:58;1.85;;;1.60;;
43363;SDS011;40636;52.424;-1.948;2024-02-21T08:49:25;0.20;;;0.20;;
43363;SDS011;40636;52.424;-1.948;2024-02-21T08:52:00;0.40;;;0.40;;
43363;SDS011;40636;52.424;-1.948;2024-02-21T08:54:27;1.98;;;1.27;;
43363;SDS011;40636;52.424;-1.948;2024-02-21T08:56:54;2.25;;;1.27;;
43363;SDS011;40636;52.424;-1.948;2024-02-21T08:59:21;4.13;;;1.45;;
43363;SDS011;40636;52.424;-1.948;2024-02-21T09:01:48;2.80;;;1.25;;
43363;SDS011;40636;52.424;-1.948;2024-02-21T09:04:15;3.92;;;1.83;;
43363;SDS011;40636;52.424;-1.948;2024-02-21T09:06:42;1.60;;;1.50;;
43363;SDS011;40636;52.424;-1.948;2024-02-21T09:09:09;2.97;;;1.50;;
43363;SDS011;40636;52.424;-1.948;2024-02-21T09:11:36;4.55;;;1.50;;
43363;SDS011;40636;52.424;-1.948;2024-02-21T09:14:03;1.17;;;1.10;;
43363;SDS011;40636;52.424;-1.948;2024-02-21T09:16:31;2.58;;;1.25;;
43363;SDS011;40636;52.424;-1.948;2024-02-21T09:18:59;2.60;;;1.30;;
43363;SDS011;40636;52.424;-1.948;2024-02-21T09:21:27;2.60;;;1.40;;
43363;SDS011;40636;52.424;-1.948;2024-02-21T09:23:54;1.30;;;1.20;;
43363;SDS011;40636;52.424;-1.948;2024-02-21T09:26:25;1.00;;;1.00;;
43363;SDS011;40636;52.424;-1.948;2024-02-21T09:28:52;1.10;;;1.00;;
43363;SDS011;40636;52.424;-1.948;2024-02-21T09:31:20;0.80;;;0.80;;
43363;SDS011;40636;52.424;-1.948;2024-02-21T09:33:47;1.00;;;0.82;;
43363;SDS011;40636;52.424;-1.948;2024-02-21T09:36:14;1.65;;;0.90;;
43363;SDS011;40636;52.424;-1.948;2024-02-21T09:38:41;1.13;;;0.90;;
43363;SDS011;40636;52.424;-1.948;2024-02-21T09:43:51;2.05;;;0.88;;
43363;SDS011;40636;52.424;-1.948;2024-02-21T09:46:24;1.75;;;0.77;;
43363;SDS011;40636;52.424;-1.948;2024-02-21T09:49:13;2.38;;;0.93;;
43363;SDS011;40636;52.424;-1.948;2024-02-21T09:51:42;2.10;;;0.85;;
43363;SDS011;40636;52.424;-1.948;2024-02-21T09:54:11;3.38;;;1.17;;
43363;SDS011;40636;52.424;-1.948;2024-02-21T09:56:44;4.85;;;1.17;;
43363;SDS011;40636;52.424;-1.948;2024-02-21T09:59:14;1.88;;;1.10;;
43363;SDS011;40636;52.424;-1.948;2024-02-21T10:01:42;2.40;;;0.90;;
43363;SDS011;40636;52.424;-1.948;2024-02-21T10:04:11;1.50;;;0.90;;
43363;SDS011;40636;52.424;-1.948;2024-02-21T10:06:38;2.75;;;1.25;;
43363;SDS011;40636;52.424;-1.948;2024-02-21T10:09:06;2.25;;;1.13;;
43363;SDS011;40636;52.424;-1.948;2024-02-21T10:11:33;2.92;;;1.35;;
43363;SDS011;40636;52.424;-1.948;2024-02-21T10:14:04;1.38;;;0.88;;
43363;SDS011;40636;52.424;-1.948;2024-02-21T10:16:32;0.60;;;0.60;;
43363;SDS011;40636;52.424;-1.948;2024-02-21T10:19:04;0.90;;;0.70;;
43363;SDS011;40636;52.424;-1.948;2024-02-21T10:21:31;0.95;;;0.70;;
43363;SDS011;40636;52.424;-1.948;2024-02-21T10:23:58;2.15;;;0.90;;
43363;SDS011;40636;52.424;-1.948;2024-02-21T10:26:25;1.63;;;0.75;;
43363;SDS011;40636;52.424;-1.948;2024-02-21T10:28:51;0.77;;;0.70;;
43363;SDS011;40636;52.424;-1.948;2024-02-21T10:31:21;0.77;;;0.52;;
43363;SDS011;40636;52.424;-1.948;2024-02-21T10:36:32;0.98;;;0.82;;
43363;SDS011;40636;52.424;-1.948;2024-02-21T10:38:59;0.60;;;0.60;;
43363;SDS011;40636;52.424;-1.948;2024-02-21T10:41:26;1.40;;;0.70;;
43363;SDS011;40636;52.424;-1.948;2024-02-21T10:43:56;0.40;;;0.40;;
43363;SDS011;40636;52.424;-1.948;2024-02-21T10:46:24;0.70;;;0.70;;
43363;SDS011;40636;52.424;-1.948;2024-02-21T10:49:01;0.63;;;0.60;;
43363;SDS011;40636;52.424;-1.948;2024-02-21T10:51:37;0.93;;;0.50;;
43363;SDS011;40636;52.424;-1.948;2024-02-21T10:54:13;1.00;;;0.50;;
43363;SDS011;40636;52.424;-1.948;2024-02-21T10:56:43;1.50;;;0.50;;
43363;SDS011;40636;52.424;-1.948;2024-02-21T10:59:12;2.50;;;0.85;;
43363;SDS011;40636;52.424;-1.948;2024-02-21T11:01:40;1.25;;;0.60;;
43363;SDS011;40636;52.424;-1.948;2024-02-21T11:04:08;1.67;;;0.93;;
43363;SDS011;40636;52.424;-1.948;2024-02-21T11:06:39;3.20;;;0.70;;
43363;SDS011;40636;52.424;-1.948;2024-02-21T11:09:08;1.17;;;0.50;;
43363;SDS011;40636;52.424;-1.948;2024-02-21T11:11:40;0.50;;;0.50;;
43363;SDS011;40636;52.424;-1.948;2024-02-21T11:16:46;1.60;;;0.63;;
43363;SDS011;40636;52.424;-1.948;2024-02-21T11:19:20;1.05;;;0.60;;
43363;SDS011;40636;52.424;-1.948;2024-02-21T11:21:49;0.80;;;0.65;;
43363;SDS011;40636;52.424;-1.948;2024-02-21T11:24:27;0.50;;;0.50;;
43363;SDS011;40636;52.424;-1.948;2024-02-21T11:26:56;1.13;;;0.55;;
43363;SDS011;40636;52.424;-1.948;2024-02-21T11:29:33;1.60;;;0.88;;
43363;SDS011;40636;52.424;-1.948;2024-02-21T11:32:09;0.70;;;0.52;;
43363;SDS011;40636;52.424;-1.948;2024-02-21T11:34:37;1.02;;;0.80;;
43363;SDS011;40636;52.424;-1.948;2024-02-21T11:37:13;0.88;;;0.50;;
43363;SDS011;40636;52.424;-1.948;2024-02-21T11:39:43;0.82;;;0.60;;
43363;SDS011;40636;52.424;-1.948;2024-02-21T11:42:10;0.80;;;0.50;;
43363;SDS011;40636;52.424;-1.948;2024-02-21T11:44:38;0.60;;;0.47;;
43363;SDS011;40636;52.424;-1.948;2024-02-21T11:47:06;1.58;;;0.47;;
43363;SDS011;40636;52.424;-1.948;2024-02-21T11:49:37;0.98;;;0.65;;
43363;SDS011;40636;52.424;-1.948;2024-02-21T11:52:08;0.63;;;0.60;;
43363;SDS011;40636;52.424;-1.948;2024-02-21T11:54:34;0.50;;;0.50;;
43363;SDS011;40636;52.424;-1.948;2024-02-21T11:57:01;0.43;;;0.43;;
43363;SDS011;40636;52.424;-1.948;2024-02-21T11:59:30;0.98;;;0.45;;
43363;SDS011;40636;52.424;-1.948;2024-02-21T12:01:59;0.82;;;0.68;;
43363;SDS011;40636;52.424;-1.948;2024-02-21T12:04:32;0.65;;;0.65;;
43363;SDS011;40636;52.424;-1.948;2024-02-21T12:06:59;0.77;;;0.50;;
43363;SDS011;40636;52.424;-1.948;2024-02-21T12:09:26;0.55;;;0.52;;
43363;SDS011;40636;52.424;-1.948;2024-02-21T12:11:57;0.55;;;0.50;;
43363;SDS011;40636;52.424;-1.948;2024-02-21T12:14:32;0.45;;;0.45;;
43363;SDS011;40636;52.424;-1.948;2024-02-21T12:17:00;0.52;;;0.52;;
43363;SDS011;40636;52.424;-1.948;2024-02-21T12:19:29;0.50;;;0.50;;
43363;SDS011;40636;52.424;-1.948;2024-02-21T12:22:00;0.25;;;0.25;;
43363;SDS011;40636;52.424;-1.948;2024-02-21T12:24:28;0.77;;;0.60;;
43363;SDS011;40636;52.424;-1.948;2024-02-21T12:26:56;0.55;;;0.50;;
43363;SDS011;40636;52.424;-1.948;2024-02-21T12:29:23;0.82;;;0.70;;
43363;SDS011;40636;52.424;-1.948;2024-02-21T12:31:51;0.47;;;0.47;;
43363;SDS011;40636;52.424;-1.948;2024-02-21T12:34:18;0.90;;;0.50;;
43363;SDS011;40636;52.424;-1.948;2024-02-21T12:37:01;1.63;;;0.70;;
43363;SDS011;40636;52.424;-1.948;2024-02-21T12:39:29;3.63;;;0.60;;
43363;SDS011;40636;52.424;-1.948;2024-02-21T12:41:58;1.42;;;0.50;;
43363;SDS011;40636;52.424;-1.948;2024-02-21T12:44:25;0.60;;;0.60;;
43363;SDS011;40636;52.424;-1.948;2024-02-21T12:46:53;0.50;;;0.50;;
43363;SDS011;40636;52.424;-1.948;2024-02-21T12:49:21;0.80;;;0.63;;
43363;SDS011;40636;52.424;-1.948;2024-02-21T12:51:49;1.33;;;0.75;;
43363;SDS011;40636;52.424;-1.948;2024-02-21T12:54:16;1.00;;;0.65;;
43363;SDS011;40636;52.424;-1.948;2024-02-21T12:56:42;0.50;;;0.50;;
43363;SDS011;40636;52.424;-1.948;2024-02-21T12:59:10;1.63;;;0.60;;
43363;SDS011;40636;52.424;-1.948;2024-02-21T13:01:37;0.50;;;0.50;;
43363;SDS011;40636;52.424;-1.948;2024-02-21T13:04:05;0.77;;;0.73;;
43363;SDS011;40636;52.424;-1.948;2024-02-21T13:06:32;0.75;;;0.50;;
43363;SDS011;40636;52.424;-1.948;2024-02-21T13:09:00;1.98;;;0.77;;
43363;SDS011;40636;52.424;-1.948;2024-02-21T13:11:34;0.55;;;0.55;;
43363;SDS011;40636;52.424;-1.948;2024-02-21T13:14:01;1.30;;;0.90;;
43363;SDS011;40636;52.424;-1.948;2024-02-21T13:16:29;0.73;;;0.73;;
43363;SDS011;40636;52.424;-1.948;2024-02-21T13:18:55;0.60;;;0.60;;
43363;SDS011;40636;52.424;-1.948;2024-02-21T13:21:23;1.17;;;0.77;;
43363;SDS011;40636;52.424;-1.948;2024-02-21T13:23:49;1.27;;;0.82;;
43363;SDS011;40636;52.424;-1.948;2024-02-21T13:26:16;0.70;;;0.70;;
43363;SDS011;40636;52.424;-1.948;2024-02-21T13:28:44;0.60;;;0.60;;
43363;SDS011;40636;52.424;-1.948;2024-02-21T13:31:11;1.75;;;0.70;;
43363;SDS011;40636;52.424;-1.948;2024-02-21T13:33:39;1.92;;;0.70;;
43363;SDS011;40636;52.424;-1.948;2024-02-21T13:36:06;0.75;;;0.50;;
43363;SDS011;40636;52.424;-1.948;2024-02-21T13:38:33;1.33;;;0.75;;
43363;SDS011;40636;52.424;-1.948;2024-02-21T13:41:00;1.83;;;0.70;;
43363;SDS011;40636;52.424;-1.948;2024-02-21T13:43:27;1.95;;;0.60;;
43363;SDS011;40636;52.424;-1.948;2024-02-21T13:45:58;1.27;;;0.60;;
43363;SDS011;40636;52.424;-1.948;2024-02-21T13:48:28;0.93;;;0.93;;
43363;SDS011;40636;52.424;-1.948;2024-02-21T13:50:56;0.80;;;0.80;;
43363;SDS011;40636;52.424;-1.948;2024-02-21T13:53:23;1.45;;;0.73;;
43363;SDS011;40636;52.424;-1.948;2024-02-21T13:55:49;0.70;;;0.70;;
43363;SDS011;40636;52.424;-1.948;2024-02-21T13:58:17;0.77;;;0.70;;
43363;SDS011;40636;52.424;-1.948;2024-02-21T14:00:44;0.70;;;0.70;;
43363;SDS011;40636;52.424;-1.948;2024-02-21T14:03:11;1.45;;;1.00;;
43363;SDS011;40636;52.424;-1.948;2024-02-21T14:05:41;1.13;;;1.02;;
43363;SDS011;40636;52.424;-1.948;2024-02-21T14:08:09;2.08;;;1.10;;
43363;SDS011;40636;52.424;-1.948;2024-02-21T14:10:36;1.92;;;1.35;;
43363;SDS011;40636;52.424;-1.948;2024-02-21T14:13:04;1.83;;;0.82;;
43363;SDS011;40636;52.424;-1.948;2024-02-21T14:15:31;1.23;;;0.93;;
43363;SDS011;40636;52.424;-1.948;2024-02-21T14:17:58;1.92;;;1.20;;
43363;SDS011;40636;52.424;-1.948;2024-02-21T14:20:25;1.65;;;1.13;;
43363;SDS011;40636;52.424;-1.948;2024-02-21T14:22:52;1.30;;;1.00;;
43363;SDS011;40636;52.424;-1.948;2024-02-21T14:25:19;0.90;;;0.90;;
43363;SDS011;40636;52.424;-1.948;2024-02-21T14:27:46;1.45;;;1.00;;
43363;SDS011;40636;52.424;-1.948;2024-02-21T14:30:13;3.65;;;1.20;;
43363;SDS011;40636;52.424;-1.948;2024-02-21T14:32:40;0.93;;;0.82;;
43363;SDS011;40636;52.424;-1.948;2024-02-21T14:35:10;2.47;;;1.27;;
43363;SDS011;40636;52.424;-1.948;2024-02-21T14:37:37;1.23;;;1.13;;
43363;SDS011;40636;52.424;-1.948;2024-02-21T14:40:04;1.27;;;1.05;;
43363;SDS011;40636;52.424;-1.948;2024-02-21T14:42:32;1.30;;;1.20;;
43363;SDS011;40636;52.424;-1.948;2024-02-21T14:44:59;1.50;;;1.15;;
43363;SDS011;40636;52.424;-1.948;2024-02-21T14:47:31;1.95;;;0.98;;